createdAt,value
2023-04-29T00:00:25.704Z,100502.92
2023-04-29T00:03:14.482Z,100506.81
2023-04-29T00:05:43.024Z,100505.64
2023-04-29T00:08:12.156Z,100507.54
2023-04-29T00:10:41.270Z,100507.77
2023-04-29T00:13:10.609Z,100504.40
2023-04-29T00:15:41.563Z,100501.85
2023-04-29T00:18:11.172Z,100501.17
2023-04-29T00:20:40.314Z,100502.98
2023-04-29T00:23:09.050Z,100502.53
2023-04-29T00:25:38.803Z,100498.83
2023-04-29T00:28:07.549Z,100500.41
2023-04-29T00:30:36.401Z,100501.98
2023-04-29T00:33:11.053Z,100502.86
2023-04-29T00:35:40.026Z,100506.99
2023-04-29T00:38:08.913Z,100509.13
2023-04-29T00:40:37.590Z,100510.21
2023-04-29T00:43:05.972Z,100513.27
2023-04-29T00:45:35.085Z,100511.46
2023-04-29T00:48:04.776Z,100516.62
2023-04-29T00:50:33.596Z,100516.77
2023-04-29T00:53:02.579Z,100521.73
2023-04-29T00:55:33.955Z,100526.45
2023-04-29T00:58:04.451Z,100529.98
2023-04-29T01:00:33.737Z,100533.06
2023-04-29T01:03:02.277Z,100534.33
2023-04-29T01:05:31.357Z,100532.55
2023-04-29T01:08:07.330Z,100538.04
2023-04-29T01:10:45.026Z,100536.77
2023-04-29T01:13:38.418Z,100538.23
2023-04-29T01:16:13.538Z,100541.27
2023-04-29T01:18:46.659Z,100545.23
2023-04-29T01:21:15.989Z,100549.51
2023-04-29T01:23:46.227Z,100547.71
2023-04-29T01:26:14.984Z,100547.14
2023-04-29T01:28:52.489Z,100547.30
2023-04-29T01:31:56.236Z,100548.69
2023-04-29T01:35:02.686Z,100546.83
2023-04-29T01:37:42.452Z,100548.94
2023-04-29T01:40:14.019Z,100551.39
2023-04-29T01:42:46.204Z,100550.36
2023-04-29T01:45:18.873Z,100553.16
2023-04-29T01:47:48.151Z,100553.82
2023-04-29T01:50:16.513Z,100555.95
2023-04-29T01:52:45.597Z,100559.48
2023-04-29T01:55:13.991Z,100556.60
2023-04-29T01:57:42.333Z,100557.67
2023-04-29T02:00:12.188Z,100559.95
2023-04-29T02:02:41.837Z,100561.75
2023-04-29T02:05:10.468Z,100563.88
2023-04-29T02:07:38.960Z,100563.36
2023-04-29T02:10:08.096Z,100562.84
2023-04-29T02:12:36.582Z,100565.48
2023-04-29T02:15:05.520Z,100568.78
2023-04-29T02:17:36.977Z,100570.89
2023-04-29T02:20:07.143Z,100571.95
2023-04-29T02:22:36.233Z,100571.09
2023-04-29T02:25:05.327Z,100572.30
2023-04-29T02:27:34.694Z,100571.60
2023-04-29T02:30:05.172Z,100575.24
2023-04-29T02:33:37.074Z,100575.77
2023-04-29T02:36:05.867Z,100576.12
2023-04-29T02:38:34.454Z,100578.66
2023-04-29T02:41:02.980Z,100578.26
2023-04-29T02:43:31.587Z,100577.38
2023-04-29T02:46:00.969Z,100581.52
2023-04-29T02:48:29.903Z,100582.73
2023-04-29T02:50:58.940Z,100582.56
2023-04-29T02:53:27.313Z,100581.33
2023-04-29T02:55:56.223Z,100580.40
2023-04-29T02:58:25.068Z,100579.19
2023-04-29T03:00:54.155Z,100581.10
2023-04-29T03:03:24.027Z,100581.67
2023-04-29T03:05:53.226Z,100583.62
2023-04-29T03:08:22.223Z,100578.30
2023-04-29T03:10:50.593Z,100580.02
2023-04-29T03:13:19.080Z,100581.74
2023-04-29T03:15:47.444Z,100583.49
2023-04-29T03:18:15.844Z,100582.33
2023-04-29T03:20:44.183Z,100579.08
2023-04-29T03:23:13.080Z,100579.48
2023-04-29T03:25:42.245Z,100580.20
2023-04-29T03:28:10.598Z,100581.41
2023-04-29T03:30:39.116Z,100581.40
2023-04-29T03:36:57.830Z,100578.52
2023-04-29T03:39:26.285Z,100578.39
2023-04-29T03:41:54.708Z,100577.36
2023-04-29T03:44:23.671Z,100573.02
2023-04-29T03:46:52.390Z,100568.55
2023-04-29T03:49:20.835Z,100573.23
2023-04-29T03:51:49.421Z,100572.75
2023-04-29T03:54:18.345Z,100578.23
2023-04-29T03:56:47.047Z,100586.70
2023-04-29T03:59:16.252Z,100588.73
2023-04-29T04:01:44.610Z,100589.89
2023-04-29T04:04:14.065Z,100593.61
2023-04-29T04:06:44.216Z,100598.35
2023-04-29T04:09:13.031Z,100603.30
2023-04-29T04:11:42.552Z,100607.77
2023-04-29T04:14:11.088Z,100609.86
2023-04-29T04:16:39.624Z,100612.48
2023-04-29T04:19:08.106Z,100616.11
2023-04-29T04:21:36.580Z,100615.94
2023-04-29T04:24:05.622Z,100620.59
2023-04-29T04:26:34.723Z,100620.38
2023-04-29T04:29:04.333Z,100624.11
2023-04-29T04:31:32.783Z,100622.50
2023-04-29T04:34:42.417Z,100621.23
2023-04-29T04:37:10.799Z,100627.12
2023-04-29T04:39:40.005Z,100631.63
2023-04-29T04:42:08.936Z,100631.48
2023-04-29T04:44:37.977Z,100638.40
2023-04-29T04:47:06.987Z,100638.80
2023-04-29T04:49:36.205Z,100643.48
2023-04-29T04:52:05.568Z,100643.29
2023-04-29T04:54:34.111Z,100645.81
2023-04-29T04:57:06.423Z,100651.52
2023-04-29T04:59:34.762Z,100650.48
2023-04-29T05:02:03.795Z,100656.05
2023-04-29T05:04:32.412Z,100658.20
2023-04-29T05:07:01.402Z,100658.82
2023-04-29T05:09:29.735Z,100660.70
2023-04-29T05:11:59.609Z,100661.46
2023-04-29T05:14:28.718Z,100662.06
2023-04-29T05:17:00.584Z,100664.58
2023-04-29T05:19:29.741Z,100664.61
2023-04-29T05:21:58.170Z,100667.09
2023-04-29T05:24:26.671Z,100668.18
2023-04-29T05:26:55.034Z,100666.08
2023-04-29T05:29:23.752Z,100664.98
2023-04-29T05:31:52.445Z,100671.78
2023-04-29T05:34:20.986Z,100678.86
2023-04-29T05:36:49.340Z,100680.71
2023-04-29T05:39:18.340Z,100677.09
2023-04-29T05:41:46.715Z,100681.19
2023-04-29T05:44:15.156Z,100678.68
2023-04-29T05:46:43.568Z,100681.70
2023-04-29T05:49:12.112Z,100679.52
2023-04-29T05:51:41.019Z,100678.44
2023-04-29T05:54:09.351Z,100679.09
2023-04-29T05:56:37.734Z,100683.23
2023-04-29T05:59:05.974Z,100680.42
2023-04-29T06:01:34.642Z,100682.83
2023-04-29T06:04:04.255Z,100688.38
2023-04-29T06:06:33.112Z,100691.27
2023-04-29T06:09:01.991Z,100696.17
2023-04-29T06:11:31.893Z,100696.42
2023-04-29T06:14:00.239Z,100700.02
2023-04-29T06:16:29.196Z,100708.34
2023-04-29T06:18:57.686Z,100718.38
2023-04-29T06:21:26.003Z,100725.54
2023-04-29T06:23:55.020Z,100735.71
2023-04-29T06:26:24.476Z,100742.75
2023-04-29T06:28:55.334Z,100750.14
2023-04-29T06:31:23.752Z,100756.30
2023-04-29T06:33:53.725Z,100757.30
2023-04-29T06:36:22.551Z,100765.17
2023-04-29T06:38:51.507Z,100783.12
2023-04-29T06:41:19.925Z,100786.50
2023-04-29T06:43:49.108Z,100778.57
2023-04-29T06:46:17.550Z,100772.83
2023-04-29T06:48:46.317Z,100777.00
2023-04-29T06:51:14.652Z,100783.17
2023-04-29T06:53:43.502Z,100793.91
2023-04-29T06:56:12.164Z,100810.48
2023-04-29T06:58:40.492Z,100825.02
2023-04-29T07:01:09.763Z,100833.45
2023-04-29T07:03:38.744Z,100821.89
2023-04-29T07:06:07.313Z,100810.61
2023-04-29T07:08:35.581Z,100808.45
2023-04-29T07:11:04.316Z,100811.40
2023-04-29T07:13:32.701Z,100800.02
2023-04-29T07:16:00.904Z,100792.04
2023-04-29T07:18:29.512Z,100787.18
2023-04-29T07:21:02.500Z,100778.61
2023-04-29T07:23:30.862Z,100775.52
2023-04-29T07:25:59.268Z,100763.94
2023-04-29T07:28:27.546Z,100756.94
2023-04-29T07:30:55.785Z,100742.52
2023-04-29T07:33:25.133Z,100737.18
2023-04-29T07:35:53.576Z,100730.73
2023-04-29T07:38:22.392Z,100738.19
2023-04-29T07:40:50.737Z,100747.21
2023-04-29T07:43:18.952Z,100753.76
2023-04-29T07:45:47.477Z,100755.59
2023-04-29T07:48:16.002Z,100749.44
2023-04-29T07:50:44.766Z,100750.02
2023-04-29T07:53:13.347Z,100758.35
2023-04-29T07:55:41.624Z,100767.33
2023-04-29T07:58:09.931Z,100769.14
2023-04-29T08:00:38.819Z,100757.05
2023-04-29T08:03:07.181Z,100736.30
2023-04-29T08:05:36.794Z,100726.31
2023-04-29T08:08:06.297Z,100727.91
2023-04-29T08:10:41.214Z,100716.95
2023-04-29T08:13:09.610Z,100699.95
2023-04-29T08:15:37.859Z,100693.77
2023-04-29T08:18:06.359Z,100689.73
2023-04-29T08:20:34.730Z,100694.31
2023-04-29T08:23:03.515Z,100700.14
2023-04-29T08:25:31.719Z,100713.55
2023-04-29T08:28:00.641Z,100724.66
2023-04-29T08:30:28.916Z,100739.80
2023-04-29T08:32:57.275Z,100750.90
2023-04-29T08:35:26.572Z,100772.91
2023-04-29T08:37:54.903Z,100782.77
2023-04-29T08:40:23.139Z,100790.35
2023-04-29T08:42:53.485Z,100802.05
2023-04-29T08:45:25.243Z,100798.83
2023-04-29T08:47:55.529Z,100782.95
2023-04-29T08:50:24.906Z,100792.85
2023-04-29T08:52:53.652Z,100783.48
2023-04-29T08:55:22.631Z,100757.45
2023-04-29T08:57:54.236Z,100740.38
2023-04-29T09:00:25.073Z,100737.58
2023-04-29T09:02:57.982Z,100738.60
2023-04-29T09:05:29.012Z,100749.52
2023-04-29T09:08:03.682Z,100760.61
2023-04-29T09:10:33.640Z,100761.44
2023-04-29T09:13:02.009Z,100741.98
2023-04-29T09:15:30.343Z,100749.20
2023-04-29T09:17:58.729Z,100734.16
2023-04-29T09:20:28.415Z,100721.02
2023-04-29T09:23:02.221Z,100694.79
2023-04-29T09:25:31.872Z,100682.38
2023-04-29T09:28:16.164Z,100678.81
2023-04-29T09:30:47.722Z,100683.72
2023-04-29T09:33:17.601Z,100720.48
2023-04-29T09:35:47.433Z,100765.36
2023-04-29T09:38:17.176Z,100820.89
2023-04-29T09:40:57.598Z,100813.21
2023-04-29T09:43:27.610Z,100809.20
2023-04-29T09:45:56.198Z,100791.73
2023-04-29T09:48:34.129Z,100767.89
2023-04-29T09:51:06.120Z,100762.69
2023-04-29T09:53:38.318Z,100744.95
2023-04-29T09:56:07.646Z,100709.52
2023-04-29T09:58:39.467Z,100677.04
2023-04-29T10:01:08.664Z,100643.54
2023-04-29T10:03:38.923Z,100635.63
2023-04-29T10:06:09.304Z,100637.02
2023-04-29T10:08:39.408Z,100616.41
2023-04-29T10:11:08.420Z,100590.60
2023-04-29T10:13:38.949Z,100567.90
2023-04-29T10:16:16.292Z,100565.94
2023-04-29T10:18:52.722Z,100574.60
2023-04-29T10:21:33.241Z,100578.48
2023-04-29T10:24:02.827Z,100603.05
2023-04-29T10:26:32.455Z,100633.03
2023-04-29T10:29:01.519Z,100678.80
2023-04-29T10:31:32.117Z,100736.66
2023-04-29T10:34:51.387Z,100773.41
2023-04-29T10:37:20.557Z,100806.33
2023-04-29T10:40:09.245Z,100808.62
2023-04-29T10:42:48.885Z,100819.05
2023-04-29T10:45:27.862Z,100804.90
2023-04-29T10:48:24.879Z,100762.09
2023-04-29T10:50:53.206Z,100723.88
2023-04-29T10:53:22.499Z,100680.15
2023-04-29T10:56:05.734Z,100631.41
2023-04-29T10:58:47.473Z,100603.67
2023-04-29T11:01:17.827Z,100585.89
2023-04-29T11:04:05.077Z,100576.73
2023-04-29T11:06:36.979Z,100569.84
2023-04-29T11:09:09.953Z,100558.99
2023-04-29T11:12:05.790Z,100551.89
2023-04-29T11:15:03.357Z,100539.34
2023-04-29T11:17:38.886Z,100530.46
2023-04-29T11:20:14.171Z,100514.22
2023-04-29T11:22:51.654Z,100510.36
2023-04-29T11:25:20.116Z,100509.66
2023-04-29T11:27:49.985Z,100507.51
2023-04-29T11:30:20.131Z,100500.09
2023-04-29T11:32:52.568Z,100499.10
2023-04-29T11:35:21.762Z,100503.47
2023-04-29T11:37:50.336Z,100524.16
2023-04-29T11:40:18.659Z,100520.71
2023-04-29T11:42:50.797Z,100523.17
2023-04-29T11:45:25.443Z,100547.66
2023-04-29T11:47:55.659Z,100578.77
2023-04-29T11:50:24.520Z,100584.85
2023-04-29T11:52:53.390Z,100597.91
2023-04-29T11:55:22.387Z,100607.45
2023-04-29T11:57:52.681Z,100585.84
2023-04-29T12:00:21.963Z,100552.77
2023-04-29T12:02:50.387Z,100531.55
2023-04-29T12:05:19.837Z,100525.36
2023-04-29T12:07:51.505Z,100517.29
2023-04-29T12:10:21.382Z,100512.83
2023-04-29T12:12:54.273Z,100520.15
2023-04-29T12:15:23.414Z,100521.80
2023-04-29T12:17:52.434Z,100512.26
2023-04-29T12:20:21.446Z,100506.05
2023-04-29T12:22:50.313Z,100487.53
2023-04-29T12:25:18.693Z,100474.48
2023-04-29T12:27:47.011Z,100471.11
2023-04-29T12:30:15.382Z,100466.75
2023-04-29T12:32:45.573Z,100472.23
2023-04-29T12:35:18.234Z,100474.02
2023-04-29T12:37:52.997Z,100515.80
2023-04-29T12:40:21.468Z,100524.48
2023-04-29T12:42:49.821Z,100532.09
2023-04-29T12:45:33.490Z,100545.34
2023-04-29T12:48:07.165Z,100535.82
2023-04-29T12:50:39.457Z,100527.84
2023-04-29T12:53:09.837Z,100518.98
2023-04-29T12:55:40.443Z,100509.03
2023-04-29T12:58:09.865Z,100487.67
2023-04-29T13:00:38.402Z,100468.86
2023-04-29T13:03:07.923Z,100458.23
2023-04-29T13:05:37.272Z,100452.83
2023-04-29T13:08:09.281Z,100452.77
2023-04-29T13:10:37.770Z,100450.35
2023-04-29T13:13:06.162Z,100443.84
2023-04-29T13:15:34.673Z,100447.75
2023-04-29T13:18:03.413Z,100456.02
2023-04-29T13:20:41.114Z,100454.30
2023-04-29T13:23:12.679Z,100458.05
2023-04-29T13:25:41.217Z,100460.94
2023-04-29T13:28:10.003Z,100463.55
2023-04-29T13:30:38.354Z,100460.70
2023-04-29T13:33:12.321Z,100457.09
2023-04-29T13:35:42.193Z,100449.86
2023-04-29T13:38:11.596Z,100446.65
2023-04-29T13:40:46.102Z,100449.80
2023-04-29T13:43:23.415Z,100443.02
2023-04-29T13:45:57.852Z,100426.67
2023-04-29T13:54:17.374Z,100397.00
2023-04-29T13:59:37.304Z,100393.55
2023-04-29T14:04:13.563Z,100391.02
2023-04-29T14:06:44.480Z,100390.73
2023-04-29T14:09:12.922Z,100385.48
2023-04-29T14:11:41.672Z,100384.02
2023-04-29T14:14:10.330Z,100383.09
2023-04-29T14:16:39.194Z,100378.55
2023-04-29T14:19:08.068Z,100380.13
2023-04-29T14:21:36.387Z,100381.91
2023-04-29T14:24:05.016Z,100388.23
2023-04-29T14:26:33.655Z,100389.35
2023-04-29T14:29:02.002Z,100391.00
2023-04-29T14:31:32.462Z,100386.27
2023-04-29T14:34:00.986Z,100400.70
2023-04-29T14:36:29.476Z,100398.39
2023-04-29T14:38:57.884Z,100391.58
2023-04-29T14:41:26.336Z,100388.89
2023-04-29T14:43:54.854Z,100387.25
2023-04-29T14:46:23.761Z,100390.58
2023-04-29T14:48:52.283Z,100390.95
2023-04-29T14:51:21.219Z,100387.52
2023-04-29T14:53:50.372Z,100385.91
2023-04-29T14:56:18.804Z,100392.33
2023-04-29T14:58:47.204Z,100399.81
2023-04-29T15:01:16.037Z,100405.39
2023-04-29T15:03:45.409Z,100405.21
2023-04-29T15:06:14.952Z,100410.95
2023-04-29T15:08:43.506Z,100418.05
2023-04-29T15:11:12.596Z,100425.80
2023-04-29T15:13:41.065Z,100430.80
2023-04-29T15:16:09.602Z,100435.19
2023-04-29T15:18:38.814Z,100440.77
2023-04-29T15:21:07.925Z,100448.86
2023-04-29T15:23:36.753Z,100449.52
2023-04-29T15:26:05.555Z,100449.06
2023-04-29T15:28:34.180Z,100458.05
2023-04-29T15:31:05.130Z,100466.36
2023-04-29T15:33:33.641Z,100472.17
2023-04-29T15:36:02.088Z,100481.05
2023-04-29T15:38:30.497Z,100487.86
2023-04-29T15:41:01.754Z,100490.95
2023-04-29T15:43:31.947Z,100498.01
2023-04-29T15:46:00.604Z,100505.13
2023-04-29T15:48:29.883Z,100516.43
2023-04-29T15:50:58.186Z,100524.23
2023-04-29T15:53:26.564Z,100537.26
2023-04-29T15:55:56.022Z,100548.34
2023-04-29T15:58:24.403Z,100558.55
2023-04-29T16:00:52.888Z,100570.11
2023-04-29T16:03:21.541Z,100576.48
2023-04-29T16:05:50.450Z,100581.70
2023-04-29T16:08:19.549Z,100587.66
2023-04-29T16:10:49.938Z,100591.48
2023-04-29T16:13:19.433Z,100597.16
2023-04-29T16:15:47.920Z,100601.68
2023-04-29T16:18:17.735Z,100609.35
2023-04-29T16:20:46.178Z,100613.55
2023-04-29T16:23:14.578Z,100617.54
2023-04-29T16:25:43.657Z,100621.45
2023-04-29T16:28:12.137Z,100629.52
2023-04-29T16:30:40.619Z,100635.52
2023-04-29T16:33:10.002Z,100638.95
2023-04-29T16:35:38.850Z,100648.19
2023-04-29T16:38:07.667Z,100655.27
2023-04-29T16:40:36.021Z,100662.55
2023-04-29T16:43:04.486Z,100668.39
2023-04-29T16:45:33.083Z,100669.06
2023-04-29T16:48:02.174Z,100675.91
2023-04-29T16:50:30.927Z,100679.34
2023-04-29T16:52:59.871Z,100682.09
2023-04-29T16:55:31.076Z,100685.27
2023-04-29T16:57:59.620Z,100687.48
2023-04-29T17:00:27.963Z,100690.52
2023-04-29T17:03:00.297Z,100698.16
2023-04-29T17:05:28.860Z,100704.35
2023-04-29T17:07:57.179Z,100708.13
2023-04-29T17:10:26.186Z,100714.91
2023-04-29T17:12:55.065Z,100721.90
2023-04-29T17:15:23.510Z,100722.83
2023-04-29T17:17:52.029Z,100731.76
2023-04-29T17:20:20.943Z,100741.16
2023-04-29T17:22:49.653Z,100744.21
2023-04-29T17:25:18.504Z,100752.36
2023-04-29T17:27:47.678Z,100749.95
2023-04-29T17:30:16.136Z,100749.66
2023-04-29T17:32:47.273Z,100749.56
2023-04-29T17:35:16.453Z,100748.81
2023-04-29T17:37:45.492Z,100752.09
2023-04-29T17:40:14.330Z,100756.16
2023-04-29T17:42:48.445Z,100761.65
2023-04-29T17:45:17.548Z,100767.36
2023-04-29T17:47:46.291Z,100771.44
2023-04-29T17:50:17.525Z,100772.93
2023-04-29T17:52:46.935Z,100773.62
2023-04-29T17:55:16.844Z,100776.02
2023-04-29T17:57:47.147Z,100775.46
2023-04-29T18:00:17.235Z,100780.36
2023-04-29T18:02:48.268Z,100781.56
2023-04-29T18:05:17.634Z,100782.92
2023-04-29T18:07:50.542Z,100790.05
2023-04-29T18:10:19.282Z,100787.65
2023-04-29T18:12:47.809Z,100790.98
2023-04-29T18:15:16.934Z,100789.52
2023-04-29T18:17:49.688Z,100792.34
2023-04-29T18:20:19.903Z,100797.61
2023-04-29T18:22:50.735Z,100798.64
2023-04-29T18:25:20.356Z,100799.67
2023-04-29T18:27:48.791Z,100801.77
2023-04-29T18:30:17.253Z,100801.21
2023-04-29T18:32:45.778Z,100803.75
2023-04-29T18:35:14.409Z,100807.10
2023-04-29T18:37:42.899Z,100811.21
2023-04-29T18:40:12.204Z,100818.48
2023-04-29T18:42:41.268Z,100824.96
2023-04-29T18:45:10.696Z,100824.13
2023-04-29T18:47:39.610Z,100830.64
2023-04-29T18:50:12.685Z,100832.58
2023-04-29T18:52:42.075Z,100838.75
2023-04-29T18:55:12.018Z,100841.52
2023-04-29T18:57:40.741Z,100845.65
2023-04-29T19:00:10.400Z,100845.91
2023-04-29T19:02:39.050Z,100851.23
2023-04-29T19:05:12.986Z,100859.96
2023-04-29T19:07:42.233Z,100864.91
2023-04-29T19:10:12.124Z,100863.98
2023-04-29T19:12:42.567Z,100872.06
2023-04-29T19:15:12.487Z,100873.49
2023-04-29T19:17:41.418Z,100878.52
2023-04-29T19:20:10.976Z,100881.48
2023-04-29T19:22:40.102Z,100886.38
2023-04-29T19:25:11.150Z,100893.98
2023-04-29T19:27:49.357Z,100899.23
2023-04-29T19:30:19.253Z,100906.52
2023-04-29T19:32:47.928Z,100908.84
2023-04-29T19:35:18.223Z,100916.84
2023-04-29T19:37:50.160Z,100917.74
2023-04-29T19:40:19.046Z,100919.86
2023-04-29T19:42:53.890Z,100925.30
2023-04-29T19:45:23.302Z,100926.80
2023-04-29T19:47:52.367Z,100932.06
2023-04-29T19:50:23.009Z,100932.58
2023-04-29T19:52:52.167Z,100930.48
2023-04-29T19:55:25.163Z,100934.94
2023-04-29T19:57:53.582Z,100937.55
2023-04-29T20:00:23.897Z,100942.65
2023-04-29T20:02:54.008Z,100944.95
2023-04-29T20:05:23.329Z,100943.66
2023-04-29T20:07:52.875Z,100948.85
2023-04-29T20:10:23.023Z,100952.91
2023-04-29T20:12:52.020Z,100954.22
2023-04-29T20:15:20.637Z,100955.70
2023-04-29T20:17:51.058Z,100954.65
2023-04-29T20:20:19.528Z,100958.52
2023-04-29T20:22:48.507Z,100961.14
2023-04-29T20:25:18.060Z,100961.70
2023-04-29T20:27:47.858Z,100966.14
2023-04-29T20:30:16.195Z,100966.06
2023-04-29T20:32:45.035Z,100968.44
2023-04-29T20:35:15.040Z,100970.04
2023-04-29T20:37:43.624Z,100971.92
2023-04-29T20:40:12.245Z,100976.91
2023-04-29T20:42:41.991Z,100981.73
2023-04-29T20:45:13.012Z,100981.02
2023-04-29T20:47:42.386Z,100986.58
2023-04-29T20:50:12.229Z,100983.49
2023-04-29T20:52:40.899Z,100984.13
2023-04-29T20:55:10.309Z,100986.58
2023-04-29T20:57:39.959Z,100988.27
2023-04-29T21:00:10.059Z,100989.59
2023-04-29T21:02:38.826Z,100990.08
2023-04-29T21:05:10.024Z,100991.28
2023-04-29T21:07:38.654Z,100994.02
2023-04-29T21:10:07.444Z,100993.13
2023-04-29T21:12:36.293Z,100990.12
2023-04-29T21:15:06.452Z,100995.73
2023-04-29T21:17:35.419Z,101003.27
2023-04-29T21:20:05.385Z,101005.25
2023-04-29T21:22:33.694Z,101006.22
2023-04-29T21:25:02.125Z,101010.08
2023-04-29T21:27:30.588Z,101015.48
2023-04-29T21:29:59.137Z,101017.27
2023-04-29T21:32:28.332Z,101019.09
2023-04-29T21:35:28.221Z,101020.92
2023-04-29T21:37:57.761Z,101024.09
2023-04-29T21:40:26.933Z,101025.88
2023-04-29T21:42:58.469Z,101027.35
2023-04-29T21:45:26.822Z,101027.38
2023-04-29T21:47:57.648Z,101030.35
2023-04-29T21:50:26.379Z,101030.70
2023-04-29T21:52:56.004Z,101031.76
2023-04-29T21:55:24.499Z,101034.91
2023-04-29T21:57:52.838Z,101037.39
2023-04-29T22:00:33.423Z,101038.05
2023-04-29T22:03:03.631Z,101043.56
2023-04-29T22:05:32.654Z,101044.46
2023-04-29T22:08:03.422Z,101045.89
2023-04-29T22:10:32.381Z,101044.01
2023-04-29T22:13:00.838Z,101048.54
2023-04-29T22:15:29.764Z,101051.31
2023-04-29T22:17:58.636Z,101055.23
2023-04-29T22:20:27.552Z,101054.77
2023-04-29T22:22:56.698Z,101052.95
2023-04-29T22:25:25.056Z,101050.91
2023-04-29T22:27:53.499Z,101048.23
2023-04-29T22:30:21.858Z,101053.70
2023-04-29T22:32:50.345Z,101050.56
2023-04-29T22:35:19.109Z,101051.36
2023-04-29T22:37:47.675Z,101055.39
2023-04-29T22:40:16.000Z,101055.44
2023-04-29T22:42:44.695Z,101056.39
2023-04-29T22:45:13.521Z,101058.76
2023-04-29T22:47:42.369Z,101060.08
2023-04-29T22:50:11.202Z,101062.31
2023-04-29T22:52:39.980Z,101057.98
2023-04-29T22:55:09.625Z,101059.56
2023-04-29T22:57:37.971Z,101060.88
2023-04-29T23:00:07.298Z,101061.38
2023-04-29T23:02:35.685Z,101056.67
2023-04-29T23:05:05.080Z,101056.30
2023-04-29T23:07:34.114Z,101055.19
2023-04-29T23:10:02.521Z,101054.98
2023-04-29T23:12:30.897Z,101053.52
2023-04-29T23:14:59.312Z,101054.30
2023-04-29T23:17:27.791Z,101053.14
2023-04-29T23:19:56.269Z,101057.85
2023-04-29T23:22:25.117Z,101055.71
2023-04-29T23:24:54.493Z,101055.48
2023-04-29T23:27:22.957Z,101056.02
2023-04-29T23:29:51.340Z,101060.23
2023-04-29T23:32:21.008Z,101059.67
2023-04-29T23:35:32.712Z,101057.88
2023-04-29T23:38:01.118Z,101056.63
2023-04-29T23:40:31.184Z,101058.95
2023-04-29T23:43:00.181Z,101063.35
2023-04-29T23:45:28.607Z,101065.32
2023-04-29T23:47:56.944Z,101065.79
2023-04-29T23:50:25.359Z,101063.46
2023-04-29T23:52:54.254Z,101064.91
2023-04-29T23:55:23.057Z,101070.11
2023-04-29T23:57:52.232Z,101068.63
